Time;durP1;ratioP1;P1;durP2;ratioP2;P2;SDS_P1;SDS_P2;PMS_P1;PMS_P2;Temp;Humidity;BMP_temperature;BMP_pressure;BME280_temperature;BME280_humidity;BME280_pressure;Samples;Min_cycle;Max_cycle;Signal;HPM_P1;HPM_P2
2022/01/03 00:00:22;;;;;;;;;1.67;1.00;;;;;22.63;43.59;101637.16;5051893;28;45402;-74
2022/01/03 00:02:49;;;;;;;;;0.00;0.00;;;;;22.63;43.94;101631.84;5054714;28;45408;-75
2022/01/03 00:05:14;;;;;;;;;0.00;0.00;;;;;22.65;44.16;101630.84;5056753;28;47143;-75
2022/01/03 00:07:43;;;;;;;;;0.00;0.00;;;;;22.64;43.68;101635.31;5041640;28;45419;-75
2022/01/03 00:10:10;;;;;;;;;1.00;0.00;;;;;22.66;44.16;101627.22;5066059;28;45353;-75
2022/01/03 00:12:36;;;;;;;;;0.00;0.00;;;;;22.60;44.09;101621.56;5041649;28;45421;-74
2022/01/03 00:15:02;;;;;;;;;1.67;1.00;;;;;22.64;44.04;101624.72;5042236;28;46256;-74
2022/01/03 00:17:28;;;;;;;;;0.00;0.00;;;;;22.66;43.61;101625.41;5030805;28;45491;-74
2022/01/03 00:19:53;;;;;;;;;3.00;0.00;;;;;22.56;44.12;101614.94;5043371;28;45397;-75
2022/01/03 00:22:21;;;;;;;;;1.00;1.00;;;;;22.65;43.73;101630.84;5053220;28;45398;-75
2022/01/03 00:24:57;;;;;;;;;0.00;0.00;;;;;22.61;43.96;101630.38;5049688;28;46258;-74
2022/01/03 00:27:31;;;;;;;;;0.00;0.00;;;;;22.62;43.91;101639.97;5054476;28;45469;-74
2022/01/03 00:29:57;;;;;;;;;0.00;0.00;;;;;22.61;44.37;101646.28;5049702;28;45489;-74
2022/01/03 00:32:22;;;;;;;;;1.00;0.00;;;;;22.59;43.96;101641.13;5047864;28;46497;-73
2022/01/03 00:34:51;;;;;;;;;1.00;0.00;;;;;22.59;44.44;101643.78;5047189;28;45687;-75
2022/01/03 00:37:18;;;;;;;;;1.00;0.00;;;;;22.56;44.30;101644.09;5047652;28;45479;-75
2022/01/03 00:39:45;;;;;;;;;2.00;0.00;;;;;22.56;44.55;101638.78;5053784;28;45445;-73
2022/01/03 00:42:13;;;;;;;;;1.00;1.00;;;;;22.55;44.04;101633.66;5051084;28;45514;-74
2022/01/03 00:44:42;;;;;;;;;2.00;0.33;;;;;22.48;44.49;101636.97;5048658;28;47237;-73
2022/01/03 00:47:10;;;;;;;;;1.00;0.00;;;;;22.54;44.57;101650.56;5050992;28;45498;-73
2022/01/03 00:49:38;;;;;;;;;2.25;0.00;;;;;22.53;44.31;101647.09;5052085;28;45424;-74
2022/01/03 00:52:04;;;;;;;;;1.00;1.00;;;;;22.54;44.25;101639.94;5053020;28;45529;-72
2022/01/03 00:54:29;;;;;;;;;0.00;0.00;;;;;22.49;44.29;101635.97;5045628;28;46205;-75
2022/01/03 00:57:02;;;;;;;;;0.00;0.00;;;;;22.55;44.51;101639.81;5046622;28;45269;-74
2022/01/03 00:59:36;;;;;;;;;2.00;0.00;;;;;22.55;44.66;101645.09;5045697;28;45662;-74
2022/01/03 01:02:02;;;;;;;;;0.00;0.00;;;;;22.54;44.41;101639.94;5049262;28;45477;-74
2022/01/03 01:04:28;;;;;;;;;1.33;0.00;;;;;22.53;44.47;101649.75;5065516;28;48212;-75
2022/01/03 01:06:55;;;;;;;;;1.00;0.00;;;;;22.53;44.75;101647.09;5038073;28;45521;-75
2022/01/03 01:09:23;;;;;;;;;0.67;0.33;;;;;22.53;44.94;101641.78;5040397;28;45445;-74
2022/01/03 01:11:51;;;;;;;;;1.33;0.00;;;;;22.54;44.22;101648.75;5046576;28;45481;-73
2022/01/03 01:14:17;;;;;;;;;0.00;0.00;;;;;22.55;44.65;101652.22;5050907;28;45707;-75
2022/01/03 01:16:42;;;;;;;;;0.33;0.33;;;;;22.56;44.27;101645.94;5051908;28;45531;-74
2022/01/03 01:19:09;;;;;;;;;0.67;0.67;;;;;22.58;44.51;101638.66;5037889;28;45391;-74
2022/01/03 01:21:35;;;;;;;;;0.00;0.00;;;;;22.55;44.88;101631.00;5051356;28;45339;-75
2022/01/03 01:24:00;;;;;;;;;2.75;0.25;;;;;22.57;44.72;101640.47;5050993;28;45972;-74
2022/01/03 01:29:10;;;;;;;;;2.00;0.00;;;;;22.60;44.35;101623.38;5041664;28;45332;-74
2022/01/03 01:31:44;;;;;;;;;0.00;0.00;;;;;22.60;44.97;101629.53;5049185;28;45361;-74
2022/01/03 01:34:14;;;;;;;;;1.00;0.00;;;;;22.61;44.77;101625.88;5051663;28;46176;-75
2022/01/03 01:36:43;;;;;;;;;0.00;0.00;;;;;22.62;44.63;101622.22;5051451;28;45626;-74
2022/01/03 01:39:10;;;;;;;;;1.33;1.00;;;;;22.64;45.06;101619.41;5041833;28;45503;-74
2022/01/03 01:41:39;;;;;;;;;0.00;0.00;;;;;22.57;44.32;101610.44;5044631;28;45309;-74
2022/01/03 01:44:07;;;;;;;;;2.00;0.00;;;;;22.53;44.93;101615.28;5047395;28;46764;-74
2022/01/03 01:46:34;;;;;;;;;0.00;0.00;;;;;22.65;44.22;101636.16;5052588;28;45332;-74
2022/01/03 01:49:04;;;;;;;;;0.00;0.00;;;;;22.65;44.70;101636.16;5052778;28;45475;-74
2022/01/03 01:51:34;;;;;;;;;0.00;0.00;;;;;22.63;44.67;101646.94;5051749;28;45514;-74
2022/01/03 01:54:04;;;;;;;;;0.67;0.33;;;;;22.62;44.66;101654.06;5048385;28;47128;-74
2022/01/03 01:56:44;;;;;;;;;0.00;0.00;;;;;22.57;44.97;101629.84;5051069;28;45444;-73
2022/01/03 01:59:38;;;;;;;;;0.00;0.00;;;;;22.67;44.45;101634.16;5047142;28;45295;-76
2022/01/03 02:02:09;;;;;;;;;0.00;0.00;;;;;22.68;44.84;101641.13;5048890;28;45279;-71
2022/01/03 02:04:44;;;;;;;;;0.00;0.00;;;;;22.69;44.87;101629.53;5050868;28;46227;-73
2022/01/03 02:07:18;;;;;;;;;0.67;0.67;;;;;22.69;44.12;101643.59;5036447;28;45510;-73
2022/01/03 02:09:58;;;;;;;;;0.00;0.00;;;;;22.69;44.20;101648.09;5058363;28;45347;-74
2022/01/03 02:12:27;;;;;;;;;0.00;0.00;;;;;22.58;44.00;101626.22;5044988;28;45465;-73
2022/01/03 02:14:57;;;;;;;;;0.00;0.00;;;;;22.63;44.15;101621.25;5044409;28;45587;-73
2022/01/03 02:17:23;;;;;;;;;0.00;0.00;;;;;22.68;44.05;101638.47;5050650;28;45377;-73
2022/01/03 02:20:05;;;;;;;;;1.00;1.00;;;;;22.59;43.95;101619.91;5055761;28;45522;-73
2022/01/03 02:22:30;;;;;;;;;3.00;1.00;;;;;22.67;44.10;101637.66;5043673;28;45509;-73
2022/01/03 02:24:55;;;;;;;;;0.00;0.00;;;;;22.68;43.75;101641.13;5040595;28;46137;-73
2022/01/03 02:27:21;;;;;;;;;3.00;1.00;;;;;22.58;43.62;101618.25;5056596;28;46806;-73
2022/01/03 02:29:46;;;;;;;;;0.00;0.00;;;;;22.58;43.87;101623.56;5045722;28;45551;-73
2022/01/03 02:32:11;;;;;;;;;0.00;0.00;;;;;22.66;43.52;101635.16;5043493;28;45515;-73
2022/01/03 02:34:37;;;;;;;;;0.00;0.00;;;;;22.66;43.45;101629.88;5044440;28;46082;-73
2022/01/03 02:37:03;;;;;;;;;0.00;0.00;;;;;22.66;43.50;101637.81;5040277;28;45398;-72
2022/01/03 02:39:28;;;;;;;;;0.33;0.00;;;;;22.58;43.72;101620.09;5063634;28;45401;-73
2022/01/03 02:41:54;;;;;;;;;1.67;0.67;;;;;22.52;43.89;101611.78;5053531;28;45366;-73
2022/01/03 02:44:19;;;;;;;;;0.00;0.00;;;;;22.52;43.37;101630.34;5050053;28;45420;-73
2022/01/03 02:46:44;;;;;;;;;1.00;0.00;;;;;22.61;43.52;101633.03;5040424;28;45343;-72
2022/01/03 02:49:10;;;;;;;;;0.00;0.00;;;;;22.61;43.87;101641.78;5055430;28;45401;-74
2022/01/03 02:51:35;;;;;;;;;4.00;1.00;;;;;22.61;43.39;101633.03;5054489;28;45389;-73
2022/01/03 02:54:01;;;;;;;;;0.00;0.00;;;;;22.51;43.70;101609.28;5051470;28;46291;-73
2022/01/03 02:56:34;;;;;;;;;3.67;0.67;;;;;22.57;43.12;101610.44;5035993;28;45425;-73
2022/01/03 02:59:00;;;;;;;;;0.33;0.33;;;;;22.56;43.09;101612.28;5043034;28;45364;-73
2022/01/03 03:01:25;;;;;;;;;1.00;0.00;;;;;22.61;43.15;101607.31;5053910;28;45493;-73
2022/01/03 03:03:51;;;;;;;;;2.00;0.00;;;;;22.54;43.60;101598.34;5054315;28;45269;-73
2022/01/03 03:06:16;;;;;;;;;1.00;1.00;;;;;22.56;43.47;101596.34;5033647;28;45394;-73
2022/01/03 03:08:42;;;;;;;;;0.67;0.00;;;;;22.61;42.94;101598.53;5050864;27;45280;-73
2022/01/03 03:11:07;;;;;;;;;1.00;0.00;;;;;22.61;42.95;101593.22;5060688;28;45503;-73
2022/01/03 03:13:33;;;;;;;;;1.33;0.00;;;;;22.50;43.24;101586.44;5040767;28;45560;-73
2022/01/03 03:15:59;;;;;;;;;2.00;0.00;;;;;22.56;43.17;101585.75;5054620;28;45339;-73
2022/01/03 03:18:25;;;;;;;;;0.67;0.00;;;;;22.53;43.17;101580.81;5046743;28;45404;-73
2022/01/03 03:20:50;;;;;;;;;2.00;1.00;;;;;22.58;43.24;101575.84;5050747;28;45548;-73
2022/01/03 03:23:15;;;;;;;;;0.00;0.00;;;;;22.60;43.03;101587.09;5050598;28;47104;-73
2022/01/03 03:25:41;;;;;;;;;0.33;0.33;;;;;22.60;42.79;101579.13;5051473;28;45473;-73
2022/01/03 03:28:13;;;;;;;;;1.00;0.00;;;;;22.60;43.15;101584.44;5038075;28;45494;-73
2022/01/03 03:30:48;;;;;;;;;0.00;0.00;;;;;22.60;42.61;101589.75;5054024;28;45378;-73
2022/01/03 03:33:19;;;;;;;;;1.00;0.00;;;;;22.61;42.83;101593.22;5051876;28;45425;-73
2022/01/03 03:35:46;;;;;;;;;0.33;0.33;;;;;22.61;42.73;101583.44;5046349;28;45389;-73
2022/01/03 03:38:12;;;;;;;;;1.00;0.00;;;;;22.61;42.69;101574.66;5047239;28;45314;-73
2022/01/03 03:40:38;;;;;;;;;0.00;0.00;;;;;22.60;42.55;101576.50;5051404;28;45385;-73
2022/01/03 03:43:03;;;;;;;;;0.00;0.00;;;;;22.61;43.14;101577.31;5054432;28;45980;-73
2022/01/03 03:45:29;;;;;;;;;0.00;0.00;;;;;22.59;43.17;101558.91;5056549;28;45398;-73
2022/01/03 03:47:57;;;;;;;;;0.00;0.00;;;;;22.61;42.76;101564.06;5032147;28;45475;-74
2022/01/03 03:50:23;;;;;;;;;1.00;0.00;;;;;22.62;42.93;101565.69;5023639;28;45257;-73
2022/01/03 03:52:48;;;;;;;;;1.67;0.67;;;;;22.61;42.49;101562.22;5046009;28;47451;-73
2022/01/03 03:55:14;;;;;;;;;1.00;1.00;;;;;22.61;42.84;101556.91;5054497;28;45529;-73
2022/01/03 03:57:39;;;;;;;;;0.33;0.00;;;;;22.62;42.46;101552.44;5053674;28;45639;-73
2022/01/03 04:00:14;;;;;;;;;0.00;0.00;;;;;22.61;42.64;101550.81;5051059;28;45284;-73
2022/01/03 04:02:40;;;;;;;;;0.25;0.00;;;;;22.51;42.56;101535.88;5046179;28;47240;-73
2022/01/03 04:05:06;;;;;;;;;0.00;0.00;;;;;22.58;42.58;101545.81;5050337;28;45356;-73
2022/01/03 04:07:32;;;;;;;;;0.00;0.00;;;;;22.61;42.49;101542.84;5053431;28;46189;-73
2022/01/03 04:09:57;;;;;;;;;0.00;0.00;;;;;22.60;42.61;101536.72;5032999;28;45450;-73
2022/01/03 04:12:22;;;;;;;;;0.33;0.33;;;;;22.57;42.34;101531.72;5042079;28;46189;-73
2022/01/03 04:14:48;;;;;;;;;0.00;0.00;;;;;22.59;42.89;101535.03;5052836;28;45489;-73
2022/01/03 04:17:14;;;;;;;;;1.00;0.50;;;;;22.55;42.80;101527.59;5048161;28;45906;-73
2022/01/03 04:19:39;;;;;;;;;1.00;0.00;;;;;22.52;42.34;101523.44;5023484;28;45967;-73
2022/01/03 04:22:05;;;;;;;;;0.00;0.00;;;;;22.58;42.56;101535.22;5037732;28;45574;-73
2022/01/03 04:24:30;;;;;;;;;1.33;1.00;;;;;22.57;42.74;101530.88;5056907;28;45394;-73
2022/01/03 04:26:56;;;;;;;;;0.00;0.00;;;;;22.52;42.77;101526.09;5053273;28;45417;-73
2022/01/03 04:29:22;;;;;;;;;2.00;1.00;;;;;22.55;42.88;101528.41;5044795;28;45505;-73
2022/01/03 04:31:47;;;;;;;;;0.00;0.00;;;;;22.51;42.66;101519.13;5039746;28;47287;-73
2022/01/03 04:34:13;;;;;;;;;2.33;0.33;;;;;22.56;42.42;101523.94;5054266;28;45568;-74
2022/01/03 04:36:39;;;;;;;;;0.00;0.00;;;;;22.55;42.96;101525.78;5056529;28;45651;-73
2022/01/03 04:39:05;;;;;;;;;0.00;0.00;;;;;22.54;42.88;101516.16;5050108;28;45631;-73
2022/01/03 04:41:31;;;;;;;;;2.00;1.00;;;;;22.49;42.90;101511.34;5045308;28;46205;-73
2022/01/03 04:43:56;;;;;;;;;1.00;1.00;;;;;22.54;42.85;101513.50;5045638;28;45401;-73
2022/01/03 04:46:21;;;;;;;;;0.67;0.00;;;;;22.55;42.75;101515.16;5020692;28;45450;-73
2022/01/03 04:48:47;;;;;;;;;1.00;0.00;;;;;22.54;42.85;101500.22;5039143;28;45173;-73
2022/01/03 04:51:12;;;;;;;;;0.00;0.00;;;;;22.53;42.93;101509.19;5041317;28;45617;-73
2022/01/03 04:53:40;;;;;;;;;0.00;0.00;;;;;22.52;42.79;101503.06;5037314;28;45537;-73
2022/01/03 04:56:11;;;;;;;;;0.00;0.00;;;;;22.53;42.38;101511.84;5039936;28;45510;-73
2022/01/03 04:58:37;;;;;;;;;1.00;0.00;;;;;22.53;42.93;101509.19;5046753;28;45491;-73
2022/01/03 05:01:03;;;;;;;;;1.25;0.00;;;;;22.46;42.52;101500.22;5037247;28;47204;-73
2022/01/03 05:03:28;;;;;;;;;2.00;1.00;;;;;22.45;42.46;101495.94;5063379;27;45424;-73
2022/01/03 05:05:54;;;;;;;;;1.33;0.33;;;;;22.53;42.49;101511.84;5045200;28;45532;-73
2022/01/03 05:08:19;;;;;;;;;0.00;0.00;;;;;22.53;42.60;101511.84;5033607;28;45713;-73
2022/01/03 05:10:44;;;;;;;;;0.00;0.00;;;;;22.53;42.31;101519.81;5060728;28;45333;-73
2022/01/03 05:13:10;;;;;;;;;2.00;0.33;;;;;22.54;42.87;101518.78;5052575;28;45338;-73
2022/01/03 05:15:35;;;;;;;;;0.75;0.00;;;;;22.55;42.27;101511.66;5043514;28;45457;-73
2022/01/03 05:18:01;;;;;;;;;1.00;1.00;;;;;22.54;42.34;101517.97;5049374;28;45453;-73
2022/01/03 05:20:26;;;;;;;;;2.75;0.00;;;;;22.48;42.82;101516.81;5044931;28;46194;-73
2022/01/03 05:22:51;;;;;;;;;1.25;1.25;;;;;22.54;42.74;101517.97;5040699;28;45529;-73
2022/01/03 05:25:17;;;;;;;;;0.67;0.00;;;;;22.53;42.16;101514.50;5038177;28;45366;-73
2022/01/03 05:27:42;;;;;;;;;3.00;0.00;;;;;22.54;42.28;101510.00;5052129;28;45357;-74
2022/01/03 05:30:08;;;;;;;;;2.00;1.00;;;;;22.54;42.13;101512.66;5029758;28;47501;-73
2022/01/03 05:32:33;;;;;;;;;0.33;0.00;;;;;22.54;42.47;101510.84;5033605;28;45275;-73
2022/01/03 05:34:59;;;;;;;;;0.00;0.00;;;;;22.56;42.59;101513.34;5043718;28;45362;-73
2022/01/03 05:37:25;;;;;;;;;0.00;0.00;;;;;22.50;42.64;101513.00;5052031;28;45261;-73
2022/01/03 05:39:50;;;;;;;;;1.00;0.00;;;;;22.54;42.04;101507.34;5050587;28;46356;-73
2022/01/03 05:42:16;;;;;;;;;0.00;0.00;;;;;22.54;42.14;101505.53;5039967;28;45316;-73
2022/01/03 05:44:41;;;;;;;;;0.00;0.00;;;;;22.52;42.13;101504.88;5040332;28;45557;-73
2022/01/03 05:47:07;;;;;;;;;0.00;0.00;;;;;22.54;42.33;101505.53;5037069;28;45447;-73
2022/01/03 05:49:32;;;;;;;;;1.00;0.00;;;;;22.54;42.63;101508.19;5038463;28;45308;-73
2022/01/03 05:51:58;;;;;;;;;1.00;1.00;;;;;22.54;42.24;101502.06;5037818;28;45186;-74
2022/01/03 05:54:23;;;;;;;;;1.00;0.00;;;;;22.52;42.67;101499.56;5039780;28;45398;-73
2022/01/03 05:56:49;;;;;;;;;1.67;0.00;;;;;22.45;42.63;101485.34;5045230;28;45501;-73
2022/01/03 05:59:14;;;;;;;;;0.00;0.00;;;;;22.24;42.53;101441.63;5048611;28;45949;-73
2022/01/03 06:01:41;;;;;;;;;2.00;0.00;;;;;22.51;42.17;101484.66;5042193;28;45461;-73
2022/01/03 06:04:21;;;;;;;;;1.50;0.00;;;;;22.51;42.44;101488.13;5057583;28;45473;-73
2022/01/03 06:06:55;;;;;;;;;1.00;1.00;;;;;22.52;42.27;101481.84;5035159;28;45263;-73
2022/01/03 06:09:22;;;;;;;;;1.25;0.50;;;;;22.51;42.37;101479.34;5044157;28;46354;-73
2022/01/03 06:11:48;;;;;;;;;1.75;0.00;;;;;22.40;42.09;101464.63;5051198;28;45455;-73
2022/01/03 06:14:18;;;;;;;;;1.33;0.00;;;;;22.52;42.14;101483.66;5048489;28;45411;-73
2022/01/03 06:16:45;;;;;;;;;1.00;1.00;;;;;22.50;42.10;101485.66;5048410;28;45514;-74
2022/01/03 06:19:11;;;;;;;;;0.00;0.00;;;;;22.42;42.70;101464.47;5053153;28;47119;-73
2022/01/03 06:21:40;;;;;;;;;0.33;0.00;;;;;22.51;42.55;101471.38;5050555;28;45310;-72
2022/01/03 06:24:11;;;;;;;;;0.00;0.00;;;;;22.43;42.16;101460.81;5041175;28;45522;-73
2022/01/03 06:26:37;;;;;;;;;0.00;0.00;;;;;22.20;42.71;101422.56;5039325;28;45596;-73
2022/01/03 06:29:05;;;;;;;;;1.25;0.25;;;;;22.50;42.21;101470.59;5038536;28;45558;-73
2022/01/03 06:31:32;;;;;;;;;0.00;0.00;;;;;22.46;42.43;101466.59;5037318;28;45424;-73
2022/01/03 06:33:59;;;;;;;;;0.00;0.00;;;;;22.50;42.44;101467.09;5051184;28;45528;-73
2022/01/03 06:36:25;;;;;;;;;1.25;0.00;;;;;22.47;42.15;101476.22;5040894;28;45318;-73
2022/01/03 06:38:50;;;;;;;;;1.50;1.00;;;;;22.48;42.46;101461.16;5047065;28;46199;-73
2022/01/03 06:41:16;;;;;;;;;2.00;0.00;;;;;22.35;42.40;101441.25;5055165;28;45299;-73
2022/01/03 06:43:41;;;;;;;;;0.00;0.00;;;;;22.49;42.58;101468.91;5049148;28;45589;-73
2022/01/03 06:46:07;;;;;;;;;0.00;0.00;;;;;22.48;42.56;101474.41;5034225;28;45525;-73
2022/01/03 06:48:32;;;;;;;;;1.25;1.00;;;;;22.49;42.06;101474.22;5038732;28;46402;-73
2022/01/03 06:50:57;;;;;;;;;2.00;0.00;;;;;22.40;42.25;101456.69;5039571;28;45464;-73
2022/01/03 06:53:23;;;;;;;;;0.00;0.00;;;;;22.49;42.41;101471.56;5045654;28;45460;-73
2022/01/03 06:55:48;;;;;;;;;2.25;0.00;;;;;22.43;42.08;101450.22;5035205;28;48621;-73
2022/01/03 06:58:13;;;;;;;;;1.50;0.50;;;;;22.40;42.29;101457.47;5055445;28;47367;-73
2022/01/03 07:00:39;;;;;;;;;0.25;0.25;;;;;22.46;42.35;101449.84;5053639;28;45572;-73
2022/01/03 07:03:04;;;;;;;;;0.00;0.00;;;;;22.48;41.95;101446.03;5049761;28;45410;-73
2022/01/03 07:05:30;;;;;;;;;0.50;0.00;;;;;22.50;42.31;101452.03;5049830;28;45398;-73
2022/01/03 07:07:55;;;;;;;;;1.25;0.50;;;;;22.45;42.44;101438.44;5043838;28;45450;-73
2022/01/03 07:10:20;;;;;;;;;0.25;0.25;;;;;22.50;42.37;101440.59;5044047;28;45505;-73
2022/01/03 07:12:51;;;;;;;;;0.00;0.00;;;;;22.50;42.45;101427.31;5053631;28;45575;-73
2022/01/03 07:20:46;;;;;;;;;0.00;0.00;;;;;22.52;41.75;101433.28;5050951;28;45482;-73
2022/01/03 07:23:12;;;;;;;;;1.33;0.00;;;;;22.45;42.30;101425.19;5053489;28;45456;-73
2022/01/03 07:25:38;;;;;;;;;2.33;0.00;;;;;22.51;42.40;101429.78;5039333;28;45573;-73
2022/01/03 07:28:03;;;;;;;;;0.00;0.00;;;;;22.52;41.72;101420.03;5038531;28;46149;-73
2022/01/03 07:30:29;;;;;;;;;1.00;1.00;;;;;22.47;42.12;101411.75;5052998;28;45371;-73
2022/01/03 07:32:55;;;;;;;;;0.00;0.00;;;;;22.52;42.02;101431.47;5040964;28;45319;-73
2022/01/03 07:35:20;;;;;;;;;0.00;0.00;;;;;22.46;42.38;101418.88;5041208;28;45715;-73
2022/01/03 07:37:46;;;;;;;;;3.00;1.67;;;;;22.51;42.31;101429.78;5041977;28;47047;-73
2022/01/03 07:40:12;;;;;;;;;1.00;0.00;;;;;22.50;41.78;101428.16;5058704;28;45353;-73
2022/01/03 07:42:40;;;;;;;;;0.00;0.00;;;;;22.51;42.36;101431.63;5053464;28;45297;-73
2022/01/03 07:45:06;;;;;;;;;2.00;0.00;;;;;22.50;42.03;101430.81;5050182;28;45663;-73
2022/01/03 07:47:31;;;;;;;;;1.00;0.00;;;;;22.42;42.07;101408.78;5030351;28;47487;-73
2022/01/03 07:49:57;;;;;;;;;0.00;0.00;;;;;22.27;42.43;101393.56;5046026;28;45283;-73
2022/01/03 07:52:22;;;;;;;;;2.00;0.00;;;;;22.48;42.39;101422.19;5035716;28;45292;-73
2022/01/03 07:54:49;;;;;;;;;0.00;0.00;;;;;22.50;42.04;101420.22;5037151;28;45507;-73
2022/01/03 07:57:14;;;;;;;;;0.00;0.00;;;;;22.50;42.25;101422.03;5038728;28;47087;-73
2022/01/03 07:59:39;;;;;;;;;0.33;0.00;;;;;22.49;41.96;101413.25;5038080;28;45507;-73
2022/01/03 08:02:05;;;;;;;;;0.50;0.50;;;;;22.48;42.31;101405.47;5039621;28;45395;-73
2022/01/03 08:04:30;;;;;;;;;2.00;0.00;;;;;22.44;42.25;101389.06;5042188;28;45421;-73
2022/01/03 08:06:56;;;;;;;;;1.00;0.33;;;;;22.49;41.98;101402.63;5037234;28;45852;-73
2022/01/03 08:09:21;;;;;;;;;0.00;0.00;;;;;22.38;42.08;101382.59;5041382;28;45481;-73
2022/01/03 08:11:46;;;;;;;;;0.00;0.00;;;;;22.46;42.34;101394.19;5041889;28;45508;-73
2022/01/03 08:14:12;;;;;;;;;0.67;0.67;;;;;22.39;41.94;101386.91;5047142;28;45366;-73
2022/01/03 08:16:37;;;;;;;;;1.00;0.00;;;;;22.47;42.24;101396.69;5051346;28;45476;-73
2022/01/03 08:19:02;;;;;;;;;2.00;0.00;;;;;22.48;41.99;101397.50;5053346;28;45353;-73
2022/01/03 08:21:28;;;;;;;;;0.75;0.00;;;;;22.48;42.30;101402.81;5038464;28;45370;-73
2022/01/03 08:23:54;;;;;;;;;1.00;0.00;;;;;22.47;42.28;101404.63;5047974;28;45378;-73
2022/01/03 08:26:19;;;;;;;;;2.67;0.00;;;;;22.48;41.87;101405.47;5050552;28;46044;-73
2022/01/03 08:28:44;;;;;;;;;1.00;0.33;;;;;22.47;42.05;101401.97;5051722;28;45461;-73
2022/01/03 08:31:10;;;;;;;;;0.00;0.00;;;;;22.48;42.32;101393.00;5054778;28;45311;-73
2022/01/03 08:33:35;;;;;;;;;0.00;0.00;;;;;22.39;42.32;101380.78;5052460;28;45252;-73
2022/01/03 08:36:01;;;;;;;;;0.67;0.00;;;;;22.48;42.08;101390.34;5042340;28;45437;-74
2022/01/03 08:38:27;;;;;;;;;1.67;0.00;;;;;22.49;42.14;101392.03;5050194;28;47182;-73
2022/01/03 08:40:52;;;;;;;;;2.00;0.00;;;;;22.50;41.75;101399.00;5039537;28;45510;-73
2022/01/03 08:43:18;;;;;;;;;3.00;0.00;;;;;22.50;41.69;101398.16;5053038;28;45487;-73
2022/01/03 08:45:43;;;;;;;;;0.00;0.00;;;;;22.48;42.37;101393.00;5052200;28;47392;-73
2022/01/03 08:48:08;;;;;;;;;3.00;0.25;;;;;22.50;42.29;101399.00;5054373;28;45426;-73
2022/01/03 08:50:34;;;;;;;;;0.00;0.00;;;;;22.32;42.14;101367.38;5049516;28;45497;-73
2022/01/03 08:53:00;;;;;;;;;2.25;0.00;;;;;22.51;41.74;101397.16;5049747;28;45437;-73
2022/01/03 08:55:26;;;;;;;;;1.00;0.00;;;;;22.49;42.22;101392.03;5052138;28;45688;-73
2022/01/03 08:57:51;;;;;;;;;0.25;0.25;;;;;22.51;42.18;101394.50;5038047;28;45264;-74
2022/01/03 09:00:18;;;;;;;;;2.00;1.00;;;;;22.51;41.64;101397.16;5053976;28;45553;-74
2022/01/03 09:02:43;;;;;;;;;1.75;1.00;;;;;22.41;41.60;101373.47;5051924;28;45486;-74
2022/01/03 09:05:09;;;;;;;;;1.67;0.00;;;;;22.51;42.00;101394.50;5058157;28;45413;-74
2022/01/03 09:07:35;;;;;;;;;1.00;0.00;;;;;22.51;42.16;101389.19;5039187;28;45385;-73
2022/01/03 09:10:01;;;;;;;;;0.00;0.00;;;;;22.46;42.02;101389.69;5041445;28;45305;-74
2022/01/03 09:12:26;;;;;;;;;1.00;1.00;;;;;22.51;42.10;101399.78;5051462;28;45412;-74
2022/01/03 09:14:53;;;;;;;;;5.50;1.50;;;;;22.50;42.13;101395.50;5048421;28;45510;-74
2022/01/03 09:17:18;;;;;;;;;1.00;0.00;;;;;22.50;41.67;101396.34;5048062;28;45461;-73
2022/01/03 09:19:44;;;;;;;;;2.00;0.00;;;;;22.51;42.17;101400.63;5052315;28;45620;-73
2022/01/03 09:22:17;;;;;;;;;0.25;0.25;;;;;22.45;41.77;101389.88;5037009;28;45481;-73
2022/01/03 09:28:48;;;;;;;;;0.00;0.00;;;;;22.49;41.99;101389.38;5035670;28;46987;-73
2022/01/03 09:30:14;;;;;;;;;1.67;0.00;;;;;22.39;41.68;101360.41;5051615;28;45465;-73
2022/01/03 09:32:40;;;;;;;;;0.75;0.50;;;;;22.49;41.65;101384.06;5048843;28;45327;-73
2022/01/03 09:35:06;;;;;;;;;0.00;0.00;;;;;22.48;41.92;101377.09;5048944;28;45469;-73
2022/01/03 09:37:35;;;;;;;;;0.25;0.00;;;;;22.44;41.86;101369.66;5038443;28;45583;-73
2022/01/03 09:40:03;;;;;;;;;0.00;0.00;;;;;22.49;41.45;101364.66;5037122;28;45615;-73
2022/01/03 09:42:30;;;;;;;;;1.00;0.00;;;;;22.48;42.15;101366.50;5040052;28;45549;-73
2022/01/03 09:44:58;;;;;;;;;0.00;0.00;;;;;22.46;42.21;101368.50;5040284;28;46372;-73
2022/01/03 09:47:30;;;;;;;;;0.00;0.00;;;;;22.46;42.19;101357.88;5039954;28;45378;-73
2022/01/03 09:49:57;;;;;;;;;0.00;0.00;;;;;22.45;41.75;101356.25;5039854;28;45462;-73
2022/01/03 09:52:24;;;;;;;;;1.75;0.50;;;;;22.48;42.04;101366.50;5037709;28;45529;-73
2022/01/03 09:54:52;;;;;;;;;0.75;0.75;;;;;22.46;41.63;101357.88;5051113;28;46203;-73
2022/01/03 09:57:21;;;;;;;;;1.00;0.00;;;;;22.47;42.08;101361.38;5026872;28;45396;-73
2022/01/03 09:59:47;;;;;;;;;0.75;0.00;;;;;22.47;42.13;101361.38;5040219;28;45338;-73
2022/01/03 10:02:15;;;;;;;;;0.00;0.00;;;;;22.47;41.96;101364.03;5045384;28;45388;-73
2022/01/03 10:04:40;;;;;;;;;0.00;0.00;;;;;22.46;41.80;101357.88;5049541;28;46207;-72
2022/01/03 10:07:11;;;;;;;;;0.00;0.00;;;;;22.43;42.11;101349.47;5052729;28;45398;-74
2022/01/03 10:09:42;;;;;;;;;1.33;1.33;;;;;22.47;41.52;101341.00;5058709;28;45354;-74
2022/01/03 10:12:13;;;;;;;;;1.50;0.00;;;;;22.48;42.05;101339.16;5048687;28;45179;-74
2022/01/03 10:14:38;;;;;;;;;3.25;1.00;;;;;22.48;41.97;101353.22;5043657;28;46749;-74
2022/01/03 10:17:04;;;;;;;;;2.00;1.00;;;;;22.48;42.02;101347.94;5048460;28;45394;-74
2022/01/03 10:19:29;;;;;;;;;2.00;0.00;;;;;22.43;42.01;101330.91;5051838;28;45513;-73
2022/01/03 10:21:55;;;;;;;;;0.50;0.25;;;;;22.49;42.03;101344.28;5036960;28;45339;-72
2022/01/03 10:24:36;;;;;;;;;0.00;0.00;;;;;22.49;41.81;101341.63;5040220;28;47363;-73
2022/01/03 10:27:02;;;;;;;;;2.00;0.00;;;;;22.49;41.57;101352.25;5048292;28;45523;-73
2022/01/03 10:29:31;;;;;;;;;1.67;0.00;;;;;22.49;41.67;101332.84;5052950;28;45439;-73
2022/01/03 10:31:58;;;;;;;;;1.25;0.00;;;;;22.51;41.92;101336.16;5050982;28;45544;-74
2022/01/03 10:34:25;;;;;;;;;0.00;0.00;;;;;22.44;41.88;101324.59;5053981;28;46263;-73
2022/01/03 10:36:52;;;;;;;;;1.00;0.00;;;;;22.48;41.82;101325.91;5040797;28;45401;-73
2022/01/03 10:39:21;;;;;;;;;1.00;0.00;;;;;22.51;41.56;101329.03;5037600;28;45464;-73
2022/01/03 10:41:50;;;;;;;;;1.00;1.00;;;;;22.51;42.17;101321.06;5051823;28;45587;-73
2022/01/03 10:44:33;;;;;;;;;0.33;0.00;;;;;22.49;41.63;101309.00;5054630;28;46304;-73
2022/01/03 10:46:59;;;;;;;;;1.00;1.00;;;;;22.45;41.65;101303.22;5052553;28;45325;-73
2022/01/03 10:49:26;;;;;;;;;1.75;0.00;;;;;22.51;41.59;101304.34;5040721;28;45477;-73
2022/01/03 10:52:09;;;;;;;;;0.75;0.75;;;;;22.45;41.98;101297.91;5041029;28;45467;-73
2022/01/03 10:54:34;;;;;;;;;0.00;0.00;;;;;22.51;42.12;101306.97;5046511;28;46278;-74
2022/01/03 10:56:59;;;;;;;;;0.25;0.25;;;;;22.50;41.54;101300.06;5051569;28;45394;-74
2022/01/03 10:59:28;;;;;;;;;1.00;1.00;;;;;22.46;41.82;101299.56;5049725;28;45498;-73
2022/01/03 11:01:56;;;;;;;;;2.50;0.00;;;;;22.51;41.42;101291.06;5043481;28;45530;-73
2022/01/03 11:13:07;;;;;;;;;0.25;0.25;;;;;22.49;42.04;101270.06;5043077;28;45450;-73
2022/01/03 11:15:33;;;;;;;;;0.75;0.75;;;;;22.48;42.16;101262.28;5050773;28;47238;-73
2022/01/03 11:18:13;;;;;;;;;0.50;0.00;;;;;22.45;41.96;101249.38;5045164;28;45384;-73
2022/01/03 11:20:39;;;;;;;;;0.50;0.25;;;;;22.45;42.13;101247.53;5054503;28;45627;-72
2022/01/03 11:23:05;;;;;;;;;1.75;1.00;;;;;22.47;41.40;101242.06;5050937;28;45295;-73
2022/01/03 11:25:32;;;;;;;;;2.50;1.00;;;;;22.43;41.95;101240.75;5034385;28;45903;-73
2022/01/03 11:27:59;;;;;;;;;0.00;0.00;;;;;22.48;41.94;101247.19;5037899;28;45532;-73
2022/01/03 11:30:25;;;;;;;;;1.50;0.00;;;;;22.48;41.50;101244.53;5044362;28;45536;-73
2022/01/03 11:32:51;;;;;;;;;1.25;0.50;;;;;22.48;41.78;101249.03;5048559;28;45588;-73
2022/01/03 11:35:17;;;;;;;;;2.00;0.75;;;;;22.45;42.04;101228.97;5053740;28;45360;-73
2022/01/03 11:37:46;;;;;;;;;0.00;0.00;;;;;22.47;41.89;101242.88;5053879;28;45544;-73
2022/01/03 11:40:14;;;;;;;;;0.00;0.00;;;;;22.48;41.82;101225.16;5064322;27;45344;-73
2022/01/03 11:42:41;;;;;;;;;0.75;0.75;;;;;22.47;42.04;101221.69;5053149;28;45307;-73